createdAt,value
2023-01-10T00:00:35.057Z,101254.59
2023-01-10T00:03:02.296Z,101259.59
2023-01-10T00:05:28.734Z,101270.41
2023-01-10T00:07:55.481Z,101279.75
2023-01-10T00:10:22.369Z,101285.84
2023-01-10T00:13:07.357Z,101298.72
2023-01-10T00:15:34.397Z,101305.22
2023-01-10T00:18:00.844Z,101309.16
2023-01-10T00:20:27.264Z,101319.19
2023-01-10T00:22:53.743Z,101321.78
2023-01-10T00:25:21.150Z,101320.81
2023-01-10T00:28:11.202Z,101334.13
2023-01-10T00:30:39.109Z,101328.44
2023-01-10T00:33:05.648Z,101326.00
2023-01-10T00:35:32.056Z,101328.44
2023-01-10T00:38:05.633Z,101326.28
2023-01-10T00:40:33.243Z,101333.31
2023-01-10T00:43:18.796Z,101340.09
2023-01-10T00:45:46.492Z,101337.28
2023-01-10T00:48:17.158Z,101331.03
2023-01-10T00:50:43.915Z,101339.44
2023-01-10T00:53:10.405Z,101338.34
2023-01-10T00:55:36.872Z,101344.88
2023-01-10T00:58:03.787Z,101350.84
2023-01-10T01:00:30.220Z,101358.44
2023-01-10T01:02:56.885Z,101359.09
2023-01-10T01:05:23.430Z,101364.81
2023-01-10T01:07:51.002Z,101364.81
2023-01-10T01:10:26.824Z,101364.00
2023-01-10T01:12:55.283Z,101376.06
2023-01-10T01:15:21.996Z,101369.53
2023-01-10T01:17:48.455Z,101373.88
2023-01-10T01:20:15.707Z,101381.88
2023-01-10T01:22:42.088Z,101388.91
2023-01-10T01:25:08.985Z,101400.97
2023-01-10T01:27:35.405Z,101392.41
2023-01-10T01:30:02.103Z,101390.81
2023-01-10T01:32:28.470Z,101392.41
2023-01-10T01:34:55.065Z,101395.53
2023-01-10T01:37:21.434Z,101392.84
2023-01-10T01:39:47.831Z,101393.53
2023-01-10T01:42:35.752Z,101399.22
2023-01-10T01:45:08.271Z,101406.69
2023-01-10T01:48:07.095Z,101415.78
2023-01-10T01:50:50.186Z,101416.34
2023-01-10T01:53:31.175Z,101415.00
2023-01-10T01:56:02.864Z,101417.44
2023-01-10T01:58:39.481Z,101417.44
2023-01-10T02:01:06.250Z,101422.06
2023-01-10T02:03:33.291Z,101419.06
2023-01-10T02:05:59.916Z,101415.91
2023-01-10T02:08:26.321Z,101420.38
2023-01-10T02:11:13.017Z,101415.63
2023-01-10T02:13:45.175Z,101415.06
2023-01-10T02:16:12.129Z,101419.69
2023-01-10T02:18:42.456Z,101424.69
2023-01-10T02:21:36.749Z,101431.19
2023-01-10T02:24:24.844Z,101429.88
2023-01-10T02:27:27.161Z,101425.94
2023-01-10T02:30:27.385Z,101435.72
2023-01-10T02:33:13.802Z,101439.69
2023-01-10T02:35:59.416Z,101443.75
2023-01-10T02:38:40.885Z,101447.00
2023-01-10T02:41:15.444Z,101448.50
2023-01-10T02:44:08.543Z,101447.56
2023-01-10T02:46:37.241Z,101451.75
2023-01-10T02:49:03.700Z,101459.22
2023-01-10T02:51:33.429Z,101458.28
2023-01-10T02:54:10.854Z,101452.88
2023-01-10T02:56:58.563Z,101457.75
2023-01-10T02:59:58.802Z,101460.22
2023-01-10T03:02:33.577Z,101464.53
2023-01-10T03:05:17.955Z,101460.88
2023-01-10T03:08:01.010Z,101470.94
2023-01-10T03:10:33.749Z,101469.03
2023-01-10T03:13:07.020Z,101473.38
2023-01-10T03:15:36.960Z,101477.56
2023-01-10T03:18:10.691Z,101475.81
2023-01-10T03:20:39.375Z,101481.91
2023-01-10T03:23:06.919Z,101488.13
2023-01-10T03:25:37.970Z,101491.66
2023-01-10T03:28:10.199Z,101494.25
2023-01-10T03:30:51.309Z,101498.44
2023-01-10T03:33:24.477Z,101501.59
2023-01-10T03:36:16.739Z,101506.63
2023-01-10T03:39:07.335Z,101502.94
2023-01-10T03:41:40.254Z,101513.78
2023-01-10T03:44:44.724Z,101517.06
2023-01-10T03:47:11.061Z,101521.25
2023-01-10T03:49:41.258Z,101522.09
2023-01-10T03:52:13.743Z,101521.25
2023-01-10T03:54:42.793Z,101529.25
2023-01-10T03:57:16.300Z,101535.63
2023-01-10T03:59:42.680Z,101536.56
2023-01-10T04:02:09.087Z,101535.09
2023-01-10T04:04:35.533Z,101544.97
2023-01-10T04:07:02.121Z,101538.56
2023-01-10T04:09:28.529Z,101542.88
2023-01-10T04:11:54.932Z,101547.88
2023-01-10T04:14:21.795Z,101541.44
2023-01-10T04:16:48.213Z,101551.19
2023-01-10T04:19:14.588Z,101550.78
2023-01-10T04:21:40.991Z,101562.94
2023-01-10T04:24:07.740Z,101561.06
2023-01-10T04:26:34.157Z,101562.56
2023-01-10T04:29:00.678Z,101565.97
2023-01-10T04:31:27.191Z,101582.47
2023-01-10T04:33:53.713Z,101573.53
2023-01-10T04:36:20.203Z,101579.97
2023-01-10T04:38:46.552Z,101582.00
2023-01-10T04:41:12.947Z,101596.06
2023-01-10T04:43:39.337Z,101590.47
2023-01-10T04:46:05.820Z,101591.78
2023-01-10T04:48:32.339Z,101596.63
2023-01-10T04:50:58.917Z,101600.25
2023-01-10T04:53:25.534Z,101603.06
2023-01-10T04:55:51.985Z,101610.09
2023-01-10T04:58:18.423Z,101608.59
2023-01-10T05:00:44.850Z,101608.94
2023-01-10T05:03:11.271Z,101615.88
2023-01-10T05:05:37.734Z,101606.75
2023-01-10T05:08:04.424Z,101613.91
2023-01-10T05:10:30.761Z,101615.22
2023-01-10T05:12:57.141Z,101609.50
2023-01-10T05:15:23.563Z,101606.34
2023-01-10T05:17:51.189Z,101606.69
2023-01-10T05:20:17.576Z,101618.31
2023-01-10T05:22:44.000Z,101620.31
2023-01-10T05:25:10.440Z,101626.63
2023-01-10T05:27:36.799Z,101633.75
2023-01-10T05:30:03.347Z,101642.75
2023-01-10T05:32:29.831Z,101653.19
2023-01-10T05:34:56.803Z,101674.31
2023-01-10T05:37:23.171Z,101657.81
2023-01-10T05:39:49.520Z,101649.63
2023-01-10T05:42:15.943Z,101658.75
2023-01-10T05:44:42.303Z,101667.84
2023-01-10T05:47:08.697Z,101674.41
2023-01-10T05:49:35.077Z,101672.97
2023-01-10T05:52:01.461Z,101675.19
2023-01-10T05:54:29.699Z,101688.50
2023-01-10T05:56:56.617Z,101681.25
2023-01-10T05:59:30.370Z,101667.91
2023-01-10T06:01:56.840Z,101671.03
2023-01-10T06:04:23.455Z,101670.91
2023-01-10T06:06:49.868Z,101667.97
2023-01-10T06:09:16.364Z,101673.69
2023-01-10T06:11:42.769Z,101682.94
2023-01-10T06:14:09.370Z,101689.38
2023-01-10T06:16:36.082Z,101690.75
2023-01-10T06:19:02.534Z,101687.78
2023-01-10T06:21:29.062Z,101680.50
2023-01-10T06:23:55.436Z,101685.41
2023-01-10T06:26:21.908Z,101699.81
2023-01-10T06:28:48.292Z,101697.00
2023-01-10T06:31:15.098Z,101700.13
2023-01-10T06:33:44.005Z,101706.78
2023-01-10T06:36:11.024Z,101711.56
2023-01-10T06:38:37.780Z,101715.66
2023-01-10T06:41:13.065Z,101716.22
2023-01-10T06:43:45.369Z,101718.56
2023-01-10T06:46:13.109Z,101718.31
2023-01-10T06:48:39.931Z,101720.88
2023-01-10T06:51:06.334Z,101732.56
2023-01-10T06:53:32.805Z,101732.31
2023-01-10T06:55:59.237Z,101735.44
2023-01-10T06:58:25.732Z,101740.22
2023-01-10T07:00:52.697Z,101728.97
2023-01-10T07:03:19.206Z,101744.31
2023-01-10T07:05:45.720Z,101743.94
2023-01-10T07:08:12.192Z,101747.34
2023-01-10T07:10:42.290Z,101752.38
2023-01-10T07:13:09.533Z,101754.00
2023-01-10T07:15:36.477Z,101733.38
2023-01-10T07:18:03.132Z,101733.25
2023-01-10T07:20:29.581Z,101742.59
2023-01-10T07:22:56.731Z,101752.91
2023-01-10T07:25:24.508Z,101753.88
2023-01-10T07:27:51.144Z,101770.28
2023-01-10T07:30:17.773Z,101773.66
2023-01-10T07:32:44.151Z,101790.91
2023-01-10T07:35:10.630Z,101794.28
2023-01-10T07:37:37.189Z,101795.81
2023-01-10T07:40:03.718Z,101797.44
2023-01-10T07:42:30.061Z,101796.50
2023-01-10T07:44:56.454Z,101806.69
2023-01-10T07:47:22.821Z,101809.25
2023-01-10T07:49:49.197Z,101822.94
2023-01-10T07:52:15.582Z,101798.94
2023-01-10T07:54:42.006Z,101809.38
2023-01-10T07:57:08.389Z,101814.78
2023-01-10T07:59:34.797Z,101824.28
2023-01-10T08:02:01.251Z,101817.59
2023-01-10T08:04:27.652Z,101815.13
2023-01-10T08:06:54.917Z,101821.25
2023-01-10T08:09:21.319Z,101820.53
2023-01-10T08:11:47.730Z,101818.94
2023-01-10T08:14:14.296Z,101834.38
2023-01-10T08:16:40.644Z,101829.91
2023-01-10T08:19:07.885Z,101838.72
2023-01-10T08:21:34.274Z,101833.56
2023-01-10T08:24:00.683Z,101829.22
2023-01-10T08:26:27.180Z,101831.81
2023-01-10T08:28:53.854Z,101829.22
2023-01-10T08:31:20.467Z,101834.16
2023-01-10T08:33:46.913Z,101835.88
2023-01-10T08:36:22.094Z,101833.91
2023-01-10T08:38:50.744Z,101831.88
2023-01-10T08:41:17.113Z,101830.69
2023-01-10T08:43:43.563Z,101844.41
2023-01-10T08:46:10.505Z,101838.53
2023-01-10T08:48:37.024Z,101826.72
2023-01-10T08:51:08.846Z,101818.44
2023-01-10T08:53:35.545Z,101815.13
2023-01-10T08:56:04.819Z,101808.50
2023-01-10T08:58:33.122Z,101816.22
2023-01-10T09:01:00.185Z,101816.91
2023-01-10T09:03:26.630Z,101821.00
2023-01-10T09:05:53.012Z,101809.75
2023-01-10T09:08:19.473Z,101813.84
2023-01-10T09:10:45.957Z,101802.44
2023-01-10T09:13:12.351Z,101816.97
2023-01-10T09:15:38.741Z,101812.63
2023-01-10T09:18:07.342Z,101815.09
2023-01-10T09:20:36.601Z,101818.38
2023-01-10T09:23:18.821Z,101821.78
2023-01-10T09:25:46.885Z,101825.03
2023-01-10T09:28:13.499Z,101818.13
2023-01-10T09:30:40.284Z,101804.53
2023-01-10T09:33:07.271Z,101819.75
2023-01-10T09:35:36.395Z,101815.56
2023-01-10T09:38:03.838Z,101815.28
2023-01-10T09:40:45.478Z,101817.84
2023-01-10T09:43:26.975Z,101815.28
2023-01-10T09:46:12.760Z,101814.34
2023-01-10T09:48:55.280Z,101815.03
2023-01-10T09:51:35.656Z,101808.81
2023-01-10T09:54:12.216Z,101819.25
2023-01-10T09:56:40.446Z,101804.47
2023-01-10T09:59:15.786Z,101809.75
2023-01-10T10:01:42.216Z,101813.97
2023-01-10T10:04:40.055Z,101824.28
2023-01-10T10:07:14.249Z,101828.63
2023-01-10T10:09:40.850Z,101818.31
2023-01-10T10:12:18.535Z,101822.53
2023-01-10T10:14:45.009Z,101811.53
2023-01-10T10:17:37.512Z,101808.81
2023-01-10T10:20:27.875Z,101812.22
2023-01-10T10:23:05.990Z,101802.84
2023-01-10T10:25:44.952Z,101799.88
2023-01-10T10:28:54.486Z,101803.97
2023-01-10T10:31:35.269Z,101802.06
2023-01-10T10:34:10.894Z,101805.25
2023-01-10T10:36:43.110Z,101795.59
2023-01-10T10:39:16.697Z,101785.28
2023-01-10T10:41:46.444Z,101789.91
2023-01-10T10:44:38.733Z,101794.34
2023-01-10T10:47:14.636Z,101791.75
2023-01-10T10:49:52.644Z,101774.44
2023-01-10T10:52:35.905Z,101771.25
2023-01-10T10:55:05.035Z,101766.22
2023-01-10T10:57:34.276Z,101768.94
2023-01-10T11:00:04.380Z,101765.81
2023-01-10T11:02:38.941Z,101758.06
2023-01-10T11:05:18.076Z,101758.06
2023-01-10T11:07:44.980Z,101746.25
2023-01-10T11:10:36.364Z,101753.16
2023-01-10T11:13:13.595Z,101750.72
2023-01-10T11:15:54.624Z,101744.75
2023-01-10T11:18:25.422Z,101733.63
2023-01-10T11:21:00.209Z,101736.88
2023-01-10T11:23:49.772Z,101728.91
2023-01-10T11:26:27.404Z,101743.31
2023-01-10T11:29:08.536Z,101742.34
2023-01-10T11:31:37.054Z,101739.50
2023-01-10T11:34:08.369Z,101729.31
2023-01-10T11:37:12.524Z,101725.69
2023-01-10T11:39:38.983Z,101724.84
2023-01-10T11:42:23.702Z,101713.84
2023-01-10T11:44:50.264Z,101711.97
2023-01-10T11:47:20.741Z,101709.25
2023-01-10T11:49:50.047Z,101714.28
2023-01-10T11:52:23.108Z,101708.06
2023-01-10T11:54:49.869Z,101707.25
2023-01-10T11:57:19.362Z,101711.44
2023-01-10T11:59:58.807Z,101711.31
2023-01-10T12:02:29.270Z,101708.63
2023-01-10T12:04:59.242Z,101698.97
2023-01-10T12:07:25.614Z,101695.47
2023-01-10T12:10:02.463Z,101697.09
2023-01-10T12:12:34.614Z,101694.53
2023-01-10T12:15:26.086Z,101683.25
2023-01-10T12:17:55.281Z,101669.41
2023-01-10T12:20:22.668Z,101668.63
2023-01-10T12:22:58.763Z,101658.00
2023-01-10T12:25:34.104Z,101656.25
2023-01-10T12:28:01.090Z,101653.69
2023-01-10T12:30:39.228Z,101648.25
2023-01-10T12:33:22.788Z,101647.19
2023-01-10T12:35:57.424Z,101641.78
2023-01-10T12:39:01.208Z,101625.38
2023-01-10T12:42:10.255Z,101621.69
2023-01-10T12:44:41.523Z,101622.53
2023-01-10T12:47:45.604Z,101622.13
2023-01-10T12:50:17.700Z,101614.25
2023-01-10T12:52:49.368Z,101621.16
2023-01-10T12:55:17.226Z,101608.97
2023-01-10T12:57:56.583Z,101604.63
2023-01-10T13:00:29.502Z,101594.28
2023-01-10T13:03:00.396Z,101595.91
2023-01-10T13:05:30.017Z,101595.38
2023-01-10T13:08:04.729Z,101595.91
2023-01-10T13:10:33.371Z,101587.22
2023-01-10T13:13:10.334Z,101580.16
2023-01-10T13:15:53.802Z,101565.38
2023-01-10T13:18:25.837Z,101560.88
2023-01-10T13:21:13.491Z,101562.41
2023-01-10T13:23:48.266Z,101546.75
2023-01-10T13:26:14.758Z,101547.31
2023-01-10T13:28:56.284Z,101548.91
2023-01-10T13:31:30.712Z,101543.75
2023-01-10T13:34:06.035Z,101533.28
2023-01-10T13:36:39.716Z,101523.81
2023-01-10T13:39:17.960Z,101528.84
2023-01-10T13:42:18.508Z,101515.63
2023-01-10T13:45:23.380Z,101522.28
2023-01-10T13:47:54.592Z,101516.19
2023-01-10T13:50:42.108Z,101527.19
2023-01-10T13:53:12.935Z,101523.53
2023-01-10T13:55:39.333Z,101509.63
2023-01-10T13:58:40.809Z,101508.69
2023-01-10T14:01:44.265Z,101498.38
2023-01-10T14:04:29.556Z,101494.81
2023-01-10T14:07:00.846Z,101497.41
2023-01-10T14:09:27.274Z,101489.66
2023-01-10T14:12:03.093Z,101491.28
2023-01-10T14:14:40.584Z,101479.19
2023-01-10T14:17:19.072Z,101484.34
2023-01-10T14:19:48.127Z,101476.59
2023-01-10T14:22:33.095Z,101470.09
2023-01-10T14:25:01.978Z,101470.38
2023-01-10T14:27:43.755Z,101462.91
2023-01-10T14:30:18.955Z,101461.88
2023-01-10T14:32:50.988Z,101449.50
2023-01-10T14:35:22.929Z,101451.00
2023-01-10T14:37:58.513Z,101435.94
2023-01-10T14:40:47.909Z,101427.00
2023-01-10T14:43:18.059Z,101431.50
2023-01-10T14:46:05.839Z,101412.91
2023-01-10T14:48:41.270Z,101418.19
2023-01-10T14:51:21.462Z,101421.06
2023-01-10T14:54:12.217Z,101404.22
2023-01-10T14:56:41.547Z,101391.44
2023-01-10T14:59:17.040Z,101382.25
2023-01-10T15:01:44.233Z,101383.31
2023-01-10T15:04:18.533Z,101375.56
2023-01-10T15:06:53.217Z,101365.38
2023-01-10T15:09:19.667Z,101348.53
2023-01-10T15:11:48.623Z,101348.69
2023-01-10T15:14:17.875Z,101340.13
2023-01-10T15:16:48.704Z,101335.09
2023-01-10T15:19:19.065Z,101329.41
2023-01-10T15:21:46.417Z,101326.84
2023-01-10T15:24:32.124Z,101329.56
2023-01-10T15:27:01.828Z,101321.03
2023-01-10T15:29:28.687Z,101316.81
2023-01-10T15:32:06.864Z,101296.31
2023-01-10T15:34:33.749Z,101297.28
2023-01-10T15:37:02.823Z,101288.72
2023-01-10T15:39:40.696Z,101291.31
2023-01-10T15:42:10.123Z,101279.38
2023-01-10T15:44:38.603Z,101272.59
2023-01-10T15:47:06.723Z,101279.50
2023-01-10T15:49:33.555Z,101278.69
2023-01-10T15:52:00.292Z,101274.50
2023-01-10T15:54:31.881Z,101271.91
2023-01-10T15:57:07.934Z,101259.97
2023-01-10T15:59:34.339Z,101270.28
2023-01-10T16:02:24.979Z,101250.59
2023-01-10T16:04:56.201Z,101243.84
2023-01-10T16:07:25.668Z,101254.16
2023-01-10T16:09:58.524Z,101246.41
2023-01-10T16:12:46.647Z,101243.97
2023-01-10T16:15:22.289Z,101238.16
2023-01-10T16:17:49.387Z,101221.06
2023-01-10T16:20:18.107Z,101204.78
2023-01-10T16:22:46.507Z,101209.25
2023-01-10T16:25:15.810Z,101211.03
2023-01-10T16:27:42.732Z,101208.59
2023-01-10T16:30:24.564Z,101192.44
2023-01-10T16:32:51.291Z,101194.19
2023-01-10T16:35:18.668Z,101182.44
2023-01-10T16:37:46.389Z,101169.69
2023-01-10T16:40:23.511Z,101161.94
2023-01-10T16:43:08.636Z,101156.78
2023-01-10T16:45:35.100Z,101157.72
2023-01-10T16:48:02.307Z,101145.00
2023-01-10T16:50:28.714Z,101157.22
2023-01-10T16:52:55.143Z,101145.13
2023-01-10T16:55:25.154Z,101117.75
2023-01-10T16:57:51.960Z,101132.38
2023-01-10T17:00:19.534Z,101145.44
2023-01-10T17:02:46.221Z,101134.97
2023-01-10T17:05:14.453Z,101129.97
2023-01-10T17:07:42.717Z,101122.25
2023-01-10T17:10:09.792Z,101122.25
2023-01-10T17:12:40.531Z,101111.09
2023-01-10T17:15:11.421Z,101114.50
2023-01-10T17:17:37.815Z,101108.53
2023-01-10T17:20:06.086Z,101102.44
2023-01-10T17:22:32.593Z,101103.38
2023-01-10T17:24:58.960Z,101092.94
2023-01-10T17:27:25.363Z,101101.47
2023-01-10T17:29:51.790Z,101108.25
2023-01-10T17:32:18.168Z,101103.09
2023-01-10T17:34:44.667Z,101103.09
2023-01-10T17:37:11.099Z,101092.78
2023-01-10T17:39:37.876Z,101078.97
2023-01-10T17:42:06.099Z,101087.50
2023-01-10T17:44:32.550Z,101073.66
2023-01-10T17:46:58.953Z,101054.66
2023-01-10T17:49:25.387Z,101081.91
2023-01-10T17:51:53.512Z,101068.88
2023-01-10T17:54:19.911Z,101055.84
2023-01-10T17:56:46.446Z,101046.19
2023-01-10T17:59:12.888Z,101049.44
2023-01-10T18:01:39.458Z,101053.66
2023-01-10T18:04:06.278Z,101053.38
2023-01-10T18:06:32.674Z,101044.00
2023-01-10T18:09:00.958Z,101035.97
2023-01-10T18:11:28.818Z,101039.22
2023-01-10T18:13:55.476Z,101026.19
2023-01-10T18:16:21.960Z,101028.47
2023-01-10T18:18:48.370Z,101024.81
2023-01-10T18:21:16.745Z,101004.03
2023-01-10T18:23:43.625Z,101007.25
2023-01-10T18:26:11.959Z,101007.78
2023-01-10T18:28:44.187Z,101005.06
2023-01-10T18:31:16.622Z,101007.34
2023-01-10T18:33:57.491Z,100989.13
2023-01-10T18:36:25.014Z,101006.09
2023-01-10T18:38:51.934Z,101005.00
2023-01-10T18:41:20.168Z,101000.53
2023-01-10T18:43:47.264Z,101000.22
2023-01-10T18:46:20.105Z,100993.97
2023-01-10T18:48:47.467Z,100998.16
2023-01-10T18:51:14.666Z,100990.13
2023-01-10T18:53:42.759Z,100986.56
2023-01-10T18:56:10.419Z,100993.06
2023-01-10T18:58:39.480Z,100980.81
2023-01-10T19:01:17.970Z,100982.16
2023-01-10T19:03:45.393Z,100992.97
2023-01-10T19:06:15.926Z,100986.69
2023-01-10T19:08:52.727Z,100964.00
2023-01-10T19:11:22.046Z,100970.47
2023-01-10T19:13:51.892Z,100970.03
2023-01-10T19:16:29.597Z,100974.88
2023-01-10T19:20:13.946Z,100971.03
2023-01-10T19:22:40.424Z,100969.63
2023-01-10T19:25:07.349Z,100968.19
2023-01-10T19:27:34.040Z,100967.88
2023-01-10T19:30:01.575Z,100976.94
2023-01-10T19:32:28.684Z,100972.44
2023-01-10T19:34:55.076Z,100953.25
2023-01-10T19:37:21.960Z,100949.53
2023-01-10T19:39:48.380Z,100958.78
2023-01-10T19:42:14.875Z,100950.06
2023-01-10T19:44:42.399Z,100931.66
2023-01-10T19:47:08.831Z,100950.25
2023-01-10T19:49:36.989Z,100942.34
2023-01-10T19:52:04.612Z,100950.75
2023-01-10T19:54:34.046Z,100928.16
2023-01-10T19:57:00.569Z,100927.84
2023-01-10T19:59:27.936Z,100934.97
2023-01-10T20:01:54.403Z,100934.81
2023-01-10T20:04:20.827Z,100937.09
2023-01-10T20:06:47.736Z,100925.78
2023-01-10T20:09:14.716Z,100926.44
2023-01-10T20:11:42.946Z,100925.31
2023-01-10T20:14:15.580Z,100924.84
2023-01-10T20:16:42.820Z,100925.50
2023-01-10T20:19:11.472Z,100917.44
2023-01-10T20:21:39.409Z,100901.78
2023-01-10T20:24:14.420Z,100898.06
2023-01-10T20:26:40.891Z,100906.31
2023-01-10T20:29:07.349Z,100897.28
2023-01-10T20:31:33.974Z,100888.38
2023-01-10T20:34:01.174Z,100888.22
2023-01-10T20:36:28.748Z,100878.53
2023-01-10T20:38:56.047Z,100886.13
2023-01-10T20:41:28.189Z,100893.72
2023-01-10T20:43:55.984Z,100882.28
2023-01-10T20:46:26.132Z,100881.13
2023-01-10T20:48:54.264Z,100873.06
2023-01-10T20:51:23.330Z,100873.72
2023-01-10T20:53:50.758Z,100856.75
2023-01-10T20:56:20.421Z,100865.13
2023-01-10T20:58:47.342Z,100854.78
2023-01-10T21:01:25.060Z,100847.88
2023-01-10T21:03:59.595Z,100840.59
2023-01-10T21:06:26.635Z,100844.97
2023-01-10T21:08:53.132Z,100842.03
2023-01-10T21:11:20.736Z,100845.44
2023-01-10T21:13:47.167Z,100836.69
2023-01-10T21:16:15.969Z,100828.78
2023-01-10T21:18:44.323Z,100829.59
2023-01-10T21:21:12.960Z,100831.19
2023-01-10T21:23:39.567Z,100828.28
2023-01-10T21:26:09.685Z,100819.56
2023-01-10T21:28:38.771Z,100817.63
2023-01-10T21:31:06.359Z,100805.16
2023-01-10T21:33:33.215Z,100799.81
2023-01-10T21:35:59.721Z,100804.84
2023-01-10T21:38:28.451Z,100793.38
2023-01-10T21:40:56.509Z,100807.91
2023-01-10T21:43:23.674Z,100795.00
2023-01-10T21:45:50.293Z,100790.28
2023-01-10T21:48:16.663Z,100792.88
2023-01-10T21:50:44.641Z,100791.88
2023-01-10T21:53:11.152Z,100791.88
2023-01-10T21:55:37.589Z,100802.91
2023-01-10T21:58:03.993Z,100799.16
2023-01-10T22:00:30.509Z,100784.47
2023-01-10T22:02:59.540Z,100775.69
2023-01-10T22:05:26.471Z,100780.72
2023-01-10T22:07:53.076Z,100776.34
2023-01-10T22:10:19.489Z,100762.44
2023-01-10T22:12:46.116Z,100758.88
2023-01-10T22:15:12.642Z,100768.06
2023-01-10T22:17:39.168Z,100766.16
2023-01-10T22:20:06.528Z,100764.03
2023-01-10T22:22:33.302Z,100756.72
2023-01-10T22:24:59.890Z,100756.56
2023-01-10T22:27:30.199Z,100740.72
2023-01-10T22:29:56.642Z,100736.97
2023-01-10T22:32:23.001Z,100739.22
2023-01-10T22:34:49.373Z,100742.91
2023-01-10T22:37:16.565Z,100734.16
2023-01-10T22:39:47.685Z,100732.22
2023-01-10T22:42:14.764Z,100729.94
2023-01-10T22:44:41.223Z,100729.78
2023-01-10T22:47:08.829Z,100719.25
2023-01-10T22:49:35.317Z,100723.25
2023-01-10T22:52:01.810Z,100723.91
2023-01-10T22:54:28.184Z,100717.44
2023-01-10T22:56:54.567Z,100724.69
2023-01-10T23:02:04.977Z,100723.22
2023-01-10T23:04:31.350Z,100723.84
2023-01-10T23:06:59.610Z,100706.16
2023-01-10T23:09:26.049Z,100705.03
2023-01-10T23:11:52.418Z,100703.88
2023-01-10T23:14:18.812Z,100709.50
2023-01-10T23:16:45.185Z,100708.19
2023-01-10T23:19:12.408Z,100702.03
2023-01-10T23:21:38.837Z,100701.69
2023-01-10T23:24:05.624Z,100713.47
2023-01-10T23:26:32.051Z,100701.97
2023-01-10T23:28:58.401Z,100710.19
2023-01-10T23:31:29.332Z,100711.66
2023-01-10T23:33:56.118Z,100692.50
2023-01-10T23:36:23.743Z,100698.78
2023-01-10T23:38:50.715Z,100705.38
2023-01-10T23:41:20.938Z,100698.06
2023-01-10T23:43:50.000Z,100691.91
2023-01-10T23:46:16.647Z,100691.38
2023-01-10T23:48:45.162Z,100697.38
2023-01-10T23:51:12.546Z,100685.84
2023-01-10T23:53:39.893Z,100688.09
2023-01-10T23:56:12.015Z,100685.94
2023-01-10T23:58:38.684Z,100670.06
